sensor_id;sensor_type;location;lat;lon;timestamp;pressure;altitude;pressure_sealevel;temperature;humidity
9746;BME280;4912;50.836;12.958;2023-04-05T00:00:50;98512.56;;;3.91;56.22
9746;BME280;4912;50.836;12.958;2023-04-05T00:03:23;98504.34;;;3.91;56.57
9746;BME280;4912;50.836;12.958;2023-04-05T00:05:54;98501.22;;;3.92;56.24
9746;BME280;4912;50.836;12.958;2023-04-05T00:08:25;98490.22;;;3.96;56.45
9746;BME280;4912;50.836;12.958;2023-04-05T00:10:55;98494.53;;;3.97;56.50
9746;BME280;4912;50.836;12.958;2023-04-05T00:13:25;98492.94;;;3.99;57.05
9746;BME280;4912;50.836;12.958;2023-04-05T00:15:56;98495.25;;;4.01;57.14
9746;BME280;4912;50.836;12.958;2023-04-05T00:18:29;98487.41;;;4.03;56.83
9746;BME280;4912;50.836;12.958;2023-04-05T00:21:00;98489.78;;;4.01;57.23
9746;BME280;4912;50.836;12.958;2023-04-05T00:23:30;98490.88;;;4.07;56.92
9746;BME280;4912;50.836;12.958;2023-04-05T00:26:05;98479.53;;;4.08;56.67
9746;BME280;4912;50.836;12.958;2023-04-05T00:28:36;98488.91;;;4.11;56.93
9746;BME280;4912;50.836;12.958;2023-04-05T00:31:06;98486.16;;;4.11;56.10
9746;BME280;4912;50.836;12.958;2023-04-05T00:33:39;98484.16;;;4.15;55.68
9746;BME280;4912;50.836;12.958;2023-04-05T00:36:10;98481.03;;;4.13;56.20
9746;BME280;4912;50.836;12.958;2023-04-05T00:38:41;98481.41;;;4.15;56.32
9746;BME280;4912;50.836;12.958;2023-04-05T00:41:12;98478.63;;;4.19;56.37
9746;BME280;4912;50.836;12.958;2023-04-05T00:43:42;98477.09;;;4.18;55.02
9746;BME280;4912;50.836;12.958;2023-04-05T00:46:13;98472.03;;;4.16;54.67
9746;BME280;4912;50.836;12.958;2023-04-05T00:48:47;98477.13;;;4.14;53.39
9746;BME280;4912;50.836;12.958;2023-04-05T00:51:17;98476.38;;;4.10;54.01
9746;BME280;4912;50.836;12.958;2023-04-05T00:53:49;98472.47;;;4.11;54.72
9746;BME280;4912;50.836;12.958;2023-04-05T00:56:22;98475.53;;;4.17;55.18
9746;BME280;4912;50.836;12.958;2023-04-05T00:58:52;98470.53;;;4.08;53.81
9746;BME280;4912;50.836;12.958;2023-04-05T01:01:23;98467.13;;;4.00;54.05
9746;BME280;4912;50.836;12.958;2023-04-05T01:03:58;98466.28;;;4.03;54.50
9746;BME280;4912;50.836;12.958;2023-04-05T01:06:35;98468.19;;;4.06;55.30
9746;BME280;4912;50.836;12.958;2023-04-05T01:09:25;98462.25;;;4.15;55.94
9746;BME280;4912;50.836;12.958;2023-04-05T01:12:03;98461.78;;;4.20;55.10
9746;BME280;4912;50.836;12.958;2023-04-05T01:14:42;98461.00;;;4.20;54.29
9746;BME280;4912;50.836;12.958;2023-04-05T01:17:13;98453.72;;;4.09;53.10
9746;BME280;4912;50.836;12.958;2023-04-05T01:19:52;98451.91;;;3.96;52.89
9746;BME280;4912;50.836;12.958;2023-04-05T01:25:44;98442.38;;;4.07;53.55
9746;BME280;4912;50.836;12.958;2023-04-05T01:28:39;98447.78;;;4.15;53.66
9746;BME280;4912;50.836;12.958;2023-04-05T01:31:22;98442.28;;;4.18;54.42
9746;BME280;4912;50.836;12.958;2023-04-05T01:33:58;98440.59;;;4.24;55.50
9746;BME280;4912;50.836;12.958;2023-04-05T01:36:32;98439.16;;;4.16;54.20
9746;BME280;4912;50.836;12.958;2023-04-05T01:39:06;98442.28;;;4.18;53.76
9746;BME280;4912;50.836;12.958;2023-04-05T01:41:37;98433.28;;;4.18;53.00
9746;BME280;4912;50.836;12.958;2023-04-05T01:44:08;98424.63;;;4.19;53.54
9746;BME280;4912;50.836;12.958;2023-04-05T01:46:41;98428.13;;;4.23;53.00
9746;BME280;4912;50.836;12.958;2023-04-05T01:49:12;98435.69;;;4.12;52.63
9746;BME280;4912;50.836;12.958;2023-04-05T01:51:42;98429.53;;;4.04;53.02
9746;BME280;4912;50.836;12.958;2023-04-05T01:54:12;98429.59;;;3.97;52.96
9746;BME280;4912;50.836;12.958;2023-04-05T01:56:42;98433.22;;;3.87;53.09
9746;BME280;4912;50.836;12.958;2023-04-05T01:59:13;98434.66;;;3.99;53.23
9746;BME280;4912;50.836;12.958;2023-04-05T02:01:46;98426.06;;;3.97;52.83
9746;BME280;4912;50.836;12.958;2023-04-05T02:04:17;98434.78;;;3.88;52.69
9746;BME280;4912;50.836;12.958;2023-04-05T02:06:47;98425.88;;;3.81;53.12
9746;BME280;4912;50.836;12.958;2023-04-05T02:09:17;98426.53;;;3.92;53.11
9746;BME280;4912;50.836;12.958;2023-04-05T02:11:47;98425.69;;;3.98;53.36
9746;BME280;4912;50.836;12.958;2023-04-05T02:14:17;98424.44;;;4.03;53.75
9746;BME280;4912;50.836;12.958;2023-04-05T02:16:50;98419.03;;;3.99;52.93
9746;BME280;4912;50.836;12.958;2023-04-05T02:19:23;98421.00;;;3.95;52.60
9746;BME280;4912;50.836;12.958;2023-04-05T02:21:57;98423.13;;;3.81;52.38
9746;BME280;4912;50.836;12.958;2023-04-05T02:24:28;98425.09;;;3.80;52.47
9746;BME280;4912;50.836;12.958;2023-04-05T02:26:58;98421.63;;;3.76;52.93
9746;BME280;4912;50.836;12.958;2023-04-05T02:29:28;98420.03;;;3.79;52.72
9746;BME280;4912;50.836;12.958;2023-04-05T02:32:01;98413.69;;;3.89;53.42
9746;BME280;4912;50.836;12.958;2023-04-05T02:34:32;98416.69;;;3.98;54.28
9746;BME280;4912;50.836;12.958;2023-04-05T02:37:02;98413.88;;;4.05;54.14
9746;BME280;4912;50.836;12.958;2023-04-05T02:39:33;98404.81;;;4.08;53.59
9746;BME280;4912;50.836;12.958;2023-04-05T02:42:03;98411.41;;;4.14;52.38
9746;BME280;4912;50.836;12.958;2023-04-05T02:44:34;98405.28;;;4.03;52.15
9746;BME280;4912;50.836;12.958;2023-04-05T02:47:07;98408.41;;;4.05;52.22
9746;BME280;4912;50.836;12.958;2023-04-05T02:49:38;98402.53;;;4.03;52.60
9746;BME280;4912;50.836;12.958;2023-04-05T02:52:08;98407.16;;;4.09;52.62
9746;BME280;4912;50.836;12.958;2023-04-05T02:54:38;98402.38;;;4.17;52.51
9746;BME280;4912;50.836;12.958;2023-04-05T02:57:09;98403.56;;;4.16;51.97
9746;BME280;4912;50.836;12.958;2023-04-05T02:59:49;98400.81;;;4.16;52.17
9746;BME280;4912;50.836;12.958;2023-04-05T03:02:23;98401.75;;;4.06;51.64
9746;BME280;4912;50.836;12.958;2023-04-05T03:04:55;98408.19;;;3.89;52.19
9746;BME280;4912;50.836;12.958;2023-04-05T03:07:30;98402.78;;;3.82;52.42
9746;BME280;4912;50.836;12.958;2023-04-05T03:10:05;98396.78;;;3.94;53.01
9746;BME280;4912;50.836;12.958;2023-04-05T03:12:39;98390.50;;;3.97;52.25
9746;BME280;4912;50.836;12.958;2023-04-05T03:15:10;98390.88;;;3.99;52.54
9746;BME280;4912;50.836;12.958;2023-04-05T03:17:45;98389.69;;;4.00;51.98
9746;BME280;4912;50.836;12.958;2023-04-05T03:20:16;98399.53;;;3.94;51.90
9746;BME280;4912;50.836;12.958;2023-04-05T03:22:46;98396.78;;;3.94;52.48
9746;BME280;4912;50.836;12.958;2023-04-05T03:25:16;98393.19;;;4.00;52.12
9746;BME280;4912;50.836;12.958;2023-04-05T03:27:47;98394.41;;;3.96;51.93
9746;BME280;4912;50.836;12.958;2023-04-05T03:30:19;98397.66;;;3.87;51.61
9746;BME280;4912;50.836;12.958;2023-04-05T03:32:57;98390.38;;;3.74;52.24
9746;BME280;4912;50.836;12.958;2023-04-05T03:35:39;98393.06;;;3.77;52.27
9746;BME280;4912;50.836;12.958;2023-04-05T03:38:10;98389.84;;;3.86;52.28
9746;BME280;4912;50.836;12.958;2023-04-05T03:40:49;98396.81;;;3.90;52.49
9746;BME280;4912;50.836;12.958;2023-04-05T03:43:19;98394.91;;;3.87;52.24
9746;BME280;4912;50.836;12.958;2023-04-05T03:45:49;98396.78;;;3.94;52.65
9746;BME280;4912;50.836;12.958;2023-04-05T03:48:22;98393.28;;;3.93;52.30
9746;BME280;4912;50.836;12.958;2023-04-05T03:50:52;98388.47;;;4.01;52.55
9746;BME280;4912;50.836;12.958;2023-04-05T03:53:23;98388.38;;;4.08;52.52
9746;BME280;4912;50.836;12.958;2023-04-05T03:55:57;98389.13;;;4.12;51.94
9746;BME280;4912;50.836;12.958;2023-04-05T03:58:40;98392.22;;;4.14;51.42
9746;BME280;4912;50.836;12.958;2023-04-05T04:01:11;98386.94;;;4.00;51.34
9746;BME280;4912;50.836;12.958;2023-04-05T04:03:45;98399.41;;;4.01;51.65
9746;BME280;4912;50.836;12.958;2023-04-05T04:06:15;98397.78;;;4.07;51.86
9746;BME280;4912;50.836;12.958;2023-04-05T04:08:46;98399.34;;;4.08;52.63
9746;BME280;4912;50.836;12.958;2023-04-05T04:11:17;98391.50;;;4.10;53.23
9746;BME280;4912;50.836;12.958;2023-04-05T04:13:47;98395.38;;;4.12;54.29
9746;BME280;4912;50.836;12.958;2023-04-05T04:16:45;98393.78;;;4.15;54.15
9746;BME280;4912;50.836;12.958;2023-04-05T04:19:33;98391.00;;;4.19;53.83
9746;BME280;4912;50.836;12.958;2023-04-05T04:22:22;98391.44;;;4.17;53.85
9746;BME280;4912;50.836;12.958;2023-04-05T04:25:15;98389.41;;;4.21;54.61
9746;BME280;4912;50.836;12.958;2023-04-05T04:27:57;98402.25;;;4.24;54.68
9746;BME280;4912;50.836;12.958;2023-04-05T04:30:47;98396.38;;;4.26;55.28
9746;BME280;4912;50.836;12.958;2023-04-05T04:33:52;98399.44;;;4.31;54.55
9746;BME280;4912;50.836;12.958;2023-04-05T04:36:51;98399.81;;;4.33;53.77
9746;BME280;4912;50.836;12.958;2023-04-05T04:39:45;98393.56;;;4.33;53.43
9746;BME280;4912;50.836;12.958;2023-04-05T04:42:38;98398.63;;;4.34;53.83
9746;BME280;4912;50.836;12.958;2023-04-05T04:45:32;98400.59;;;4.34;54.07
9746;BME280;4912;50.836;12.958;2023-04-05T04:48:39;98395.88;;;4.34;54.70
9746;BME280;4912;50.836;12.958;2023-04-05T04:51:24;98396.22;;;4.36;55.82
9746;BME280;4912;50.836;12.958;2023-04-05T04:53:57;98386.06;;;4.37;55.38
9746;BME280;4912;50.836;12.958;2023-04-05T04:56:27;98392.75;;;4.36;55.41
9746;BME280;4912;50.836;12.958;2023-04-05T04:58:58;98399.72;;;4.40;55.78
9746;BME280;4912;50.836;12.958;2023-04-05T05:01:29;98407.16;;;4.40;56.85
9746;BME280;4912;50.836;12.958;2023-04-05T05:04:01;98403.66;;;4.39;56.26
9746;BME280;4912;50.836;12.958;2023-04-05T05:06:35;98398.16;;;4.39;55.92
9746;BME280;4912;50.836;12.958;2023-04-05T05:09:08;98402.47;;;4.40;56.38
9746;BME280;4912;50.836;12.958;2023-04-05T05:12:04;98404.03;;;4.41;56.63
9746;BME280;4912;50.836;12.958;2023-04-05T05:14:34;98399.66;;;4.44;56.20
9746;BME280;4912;50.836;12.958;2023-04-05T05:17:04;98405.91;;;4.44;53.87
9746;BME280;4912;50.836;12.958;2023-04-05T05:19:35;98396.13;;;4.47;53.35
9746;BME280;4912;50.836;12.958;2023-04-05T05:22:05;98398.84;;;4.47;54.61
9746;BME280;4912;50.836;12.958;2023-04-05T05:24:37;98404.22;;;4.54;55.65
9746;BME280;4912;50.836;12.958;2023-04-05T05:27:08;98407.31;;;4.56;55.93
9746;BME280;4912;50.836;12.958;2023-04-05T05:29:38;98396.84;;;4.51;57.03
9746;BME280;4912;50.836;12.958;2023-04-05T05:32:08;98403.09;;;4.51;57.11
9746;BME280;4912;50.836;12.958;2023-04-05T05:34:41;98407.72;;;4.54;56.26
9746;BME280;4912;50.836;12.958;2023-04-05T05:37:11;98396.38;;;4.56;56.13
9746;BME280;4912;50.836;12.958;2023-04-05T05:39:45;98395.56;;;4.59;55.51
9746;BME280;4912;50.836;12.958;2023-04-05T05:42:15;98400.97;;;4.63;54.29
9746;BME280;4912;50.836;12.958;2023-04-05T05:44:46;98400.59;;;4.61;54.58
9746;BME280;4912;50.836;12.958;2023-04-05T05:47:17;98398.22;;;4.63;54.20
9746;BME280;4912;50.836;12.958;2023-04-05T05:49:47;98393.47;;;4.67;54.13
9746;BME280;4912;50.836;12.958;2023-04-05T05:52:18;98398.13;;;4.70;53.74
9746;BME280;4912;50.836;12.958;2023-04-05T05:54:51;98393.78;;;4.72;54.16
9746;BME280;4912;50.836;12.958;2023-04-05T05:57:21;98402.44;;;4.71;53.69
9746;BME280;4912;50.836;12.958;2023-04-05T05:59:52;98395.63;;;4.79;53.11
9746;BME280;4912;50.836;12.958;2023-04-05T06:02:23;98389.19;;;4.89;53.48
9746;BME280;4912;50.836;12.958;2023-04-05T06:04:53;98384.56;;;4.86;52.97
9746;BME280;4912;50.836;12.958;2023-04-05T06:07:24;98393.50;;;4.90;53.06
9746;BME280;4912;50.836;12.958;2023-04-05T06:09:57;98397.38;;;4.92;53.36
9746;BME280;4912;50.836;12.958;2023-04-05T06:12:30;98395.03;;;4.94;53.71
9746;BME280;4912;50.836;12.958;2023-04-05T06:15:00;98392.13;;;5.02;53.30
9746;BME280;4912;50.836;12.958;2023-04-05T06:17:31;98395.91;;;5.11;52.58
9746;BME280;4912;50.836;12.958;2023-04-05T06:20:08;98404.47;;;5.13;51.40
9746;BME280;4912;50.836;12.958;2023-04-05T06:22:39;98398.28;;;5.09;50.45
9746;BME280;4912;50.836;12.958;2023-04-05T06:25:12;98392.03;;;5.09;50.08
9746;BME280;4912;50.836;12.958;2023-04-05T06:27:44;98394.53;;;5.00;50.16
9746;BME280;4912;50.836;12.958;2023-04-05T06:30:14;98395.66;;;5.02;50.11
9746;BME280;4912;50.836;12.958;2023-04-05T06:32:44;98399.59;;;5.01;49.73
9746;BME280;4912;50.836;12.958;2023-04-05T06:35:20;98395.19;;;5.07;49.63
9746;BME280;4912;50.836;12.958;2023-04-05T06:37:50;98399.59;;;5.24;49.14
9746;BME280;4912;50.836;12.958;2023-04-05T06:40:23;98398.66;;;5.11;48.27
9746;BME280;4912;50.836;12.958;2023-04-05T06:42:53;98402.00;;;5.22;47.26
9746;BME280;4912;50.836;12.958;2023-04-05T06:45:28;98400.97;;;5.36;47.42
9746;BME280;4912;50.836;12.958;2023-04-05T06:47:58;98396.50;;;5.22;46.46
9746;BME280;4912;50.836;12.958;2023-04-05T06:50:28;98402.09;;;5.39;45.78
9746;BME280;4912;50.836;12.958;2023-04-05T06:52:58;98401.13;;;5.49;45.81
9746;BME280;4912;50.836;12.958;2023-04-05T06:55:31;98397.91;;;5.54;45.39
9746;BME280;4912;50.836;12.958;2023-04-05T06:58:01;98405.53;;;5.66;46.34
9746;BME280;4912;50.836;12.958;2023-04-05T07:00:32;98392.88;;;5.72;46.33
9746;BME280;4912;50.836;12.958;2023-04-05T07:03:02;98402.91;;;5.82;45.54
9746;BME280;4912;50.836;12.958;2023-04-05T07:05:32;98394.66;;;5.82;46.09
9746;BME280;4912;50.836;12.958;2023-04-05T07:08:02;98392.44;;;5.97;45.90
9746;BME280;4912;50.836;12.958;2023-04-05T07:10:38;98397.13;;;6.16;45.16
9746;BME280;4912;50.836;12.958;2023-04-05T07:13:09;98398.06;;;6.29;44.59
9746;BME280;4912;50.836;12.958;2023-04-05T07:15:39;98391.44;;;6.79;42.61
9746;BME280;4912;50.836;12.958;2023-04-05T07:18:09;98395.38;;;7.43;41.49
9746;BME280;4912;50.836;12.958;2023-04-05T07:20:41;98394.81;;;8.21;40.45
9746;BME280;4912;50.836;12.958;2023-04-05T07:23:16;98375.13;;;8.48;40.14
9746;BME280;4912;50.836;12.958;2023-04-05T07:25:51;98383.22;;;8.93;39.41
9746;BME280;4912;50.836;12.958;2023-04-05T07:28:21;98375.66;;;9.19;37.80
9746;BME280;4912;50.836;12.958;2023-04-05T07:30:51;98383.25;;;9.40;36.86
9746;BME280;4912;50.836;12.958;2023-04-05T07:33:22;98376.47;;;9.89;37.04
9746;BME280;4912;50.836;12.958;2023-04-05T07:35:52;98376.31;;;10.14;35.75
9746;BME280;4912;50.836;12.958;2023-04-05T07:38:23;98373.09;;;10.37;35.71
9746;BME280;4912;50.836;12.958;2023-04-05T07:40:57;98365.59;;;10.16;35.09
9746;BME280;4912;50.836;12.958;2023-04-05T07:43:27;98372.91;;;10.32;34.85
9746;BME280;4912;50.836;12.958;2023-04-05T07:46:00;98373.34;;;10.52;33.85
9746;BME280;4912;50.836;12.958;2023-04-05T07:48:31;98373.00;;;10.72;33.52
9746;BME280;4912;50.836;12.958;2023-04-05T07:51:04;98370.53;;;11.32;33.31
9746;BME280;4912;50.836;12.958;2023-04-05T07:53:35;98371.97;;;11.64;33.07
9746;BME280;4912;50.836;12.958;2023-04-05T07:56:10;98371.63;;;12.25;31.95
9746;BME280;4912;50.836;12.958;2023-04-05T07:58:41;98372.34;;;12.53;31.02
9746;BME280;4912;50.836;12.958;2023-04-05T08:01:13;98366.94;;;13.01;29.81
9746;BME280;4912;50.836;12.958;2023-04-05T08:03:43;98366.78;;;13.76;29.35
9746;BME280;4912;50.836;12.958;2023-04-05T08:06:14;98361.97;;;14.29;28.57
9746;BME280;4912;50.836;12.958;2023-04-05T08:08:45;98371.94;;;15.15;27.57
9746;BME280;4912;50.836;12.958;2023-04-05T08:11:18;98357.31;;;15.75;26.66
9746;BME280;4912;50.836;12.958;2023-04-05T08:13:49;98361.78;;;16.65;25.20
9746;BME280;4912;50.836;12.958;2023-04-05T08:16:20;98351.53;;;17.73;24.86
9746;BME280;4912;50.836;12.958;2023-04-05T08:18:50;98350.47;;;18.63;23.43
9746;BME280;4912;50.836;12.958;2023-04-05T08:21:21;98359.06;;;19.15;23.17
9746;BME280;4912;50.836;12.958;2023-04-05T08:23:52;98353.50;;;19.95;22.27
9746;BME280;4912;50.836;12.958;2023-04-05T08:26:25;98342.97;;;20.77;21.41
9746;BME280;4912;50.836;12.958;2023-04-05T08:28:55;98345.78;;;21.56;20.25
9746;BME280;4912;50.836;12.958;2023-04-05T08:31:25;98344.09;;;21.47;19.71
9746;BME280;4912;50.836;12.958;2023-04-05T08:33:55;98336.31;;;19.52;21.39
9746;BME280;4912;50.836;12.958;2023-04-05T08:36:26;98334.34;;;18.19;21.43
9746;BME280;4912;50.836;12.958;2023-04-05T08:38:56;98347.06;;;16.64;23.26
9746;BME280;4912;50.836;12.958;2023-04-05T08:41:35;98351.09;;;14.90;25.39
9746;BME280;4912;50.836;12.958;2023-04-05T08:44:10;98362.91;;;13.35;26.81
9746;BME280;4912;50.836;12.958;2023-04-05T08:46:40;98364.25;;;12.22;29.24
9746;BME280;4912;50.836;12.958;2023-04-05T08:49:12;98358.09;;;11.64;29.78
9746;BME280;4912;50.836;12.958;2023-04-05T08:51:42;98354.19;;;11.16;30.42
9746;BME280;4912;50.836;12.958;2023-04-05T08:54:12;98355.81;;;10.86;30.85
9746;BME280;4912;50.836;12.958;2023-04-05T08:56:45;98355.00;;;10.36;31.35
9746;BME280;4912;50.836;12.958;2023-04-05T08:59:20;98353.84;;;10.24;31.75
9746;BME280;4912;50.836;12.958;2023-04-05T09:01:50;98361.66;;;10.26;33.44
9746;BME280;4912;50.836;12.958;2023-04-05T09:04:21;98356.91;;;10.26;33.00
9746;BME280;4912;50.836;12.958;2023-04-05T09:06:54;98355.09;;;10.11;32.61
9746;BME280;4912;50.836;12.958;2023-04-05T09:09:27;98364.44;;;10.04;31.75
9746;BME280;4912;50.836;12.958;2023-04-05T09:12:04;98363.13;;;9.96;31.14
9746;BME280;4912;50.836;12.958;2023-04-05T09:14:35;98355.44;;;10.35;30.64
9746;BME280;4912;50.836;12.958;2023-04-05T09:17:05;98353.00;;;10.37;29.91
9746;BME280;4912;50.836;12.958;2023-04-05T09:19:35;98365.03;;;10.52;30.03
9746;BME280;4912;50.836;12.958;2023-04-05T09:22:06;98366.69;;;10.71;30.23
9746;BME280;4912;50.836;12.958;2023-04-05T09:24:42;98361.28;;;12.86;29.44
9746;BME280;4912;50.836;12.958;2023-04-05T09:27:19;98354.84;;;13.04;29.15
9746;BME280;4912;50.836;12.958;2023-04-05T09:29:54;98359.41;;;12.92;29.76
9746;BME280;4912;50.836;12.958;2023-04-05T09:32:24;98365.56;;;12.54;29.94
9746;BME280;4912;50.836;12.958;2023-04-05T09:34:59;98358.25;;;12.24;29.96
9746;BME280;4912;50.836;12.958;2023-04-05T09:37:32;98356.75;;;11.96;29.41
9746;BME280;4912;50.836;12.958;2023-04-05T09:40:03;98360.72;;;11.67;29.09
9746;BME280;4912;50.836;12.958;2023-04-05T09:42:44;98359.31;;;11.35;29.28
9746;BME280;4912;50.836;12.958;2023-04-05T09:45:15;98359.63;;;11.28;29.34
9746;BME280;4912;50.836;12.958;2023-04-05T09:47:53;98353.28;;;11.28;29.17
9746;BME280;4912;50.836;12.958;2023-04-05T09:50:25;98356.53;;;11.35;29.42
9746;BME280;4912;50.836;12.958;2023-04-05T09:53:07;98360.56;;;11.53;29.84
9746;BME280;4912;50.836;12.958;2023-04-05T09:55:43;98360.88;;;11.64;29.91
9746;BME280;4912;50.836;12.958;2023-04-05T09:58:20;98352.13;;;11.83;29.96
9746;BME280;4912;50.836;12.958;2023-04-05T10:00:50;98350.84;;;12.21;29.77
9746;BME280;4912;50.836;12.958;2023-04-05T10:03:45;98352.63;;;12.51;28.78
9746;BME280;4912;50.836;12.958;2023-04-05T10:06:15;98349.13;;;12.75;29.22
9746;BME280;4912;50.836;12.958;2023-04-05T10:08:46;98345.09;;;12.43;27.61
9746;BME280;4912;50.836;12.958;2023-04-05T10:11:17;98349.25;;;12.38;27.98
9746;BME280;4912;50.836;12.958;2023-04-05T10:13:50;98346.28;;;12.51;27.67
9746;BME280;4912;50.836;12.958;2023-04-05T10:16:20;98338.16;;;13.61;27.71
9746;BME280;4912;50.836;12.958;2023-04-05T10:18:54;98331.91;;;14.19;27.38
9746;BME280;4912;50.836;12.958;2023-04-05T10:21:25;98330.34;;;14.77;25.28
9746;BME280;4912;50.836;12.958;2023-04-05T10:24:00;98330.75;;;16.06;24.53
9746;BME280;4912;50.836;12.958;2023-04-05T10:26:39;98326.59;;;15.14;24.38
9746;BME280;4912;50.836;12.958;2023-04-05T10:29:16;98327.97;;;15.04;24.97
9746;BME280;4912;50.836;12.958;2023-04-05T10:31:54;98322.97;;;16.67;25.04
9746;BME280;4912;50.836;12.958;2023-04-05T10:34:29;98318.88;;;16.36;25.31
9746;BME280;4912;50.836;12.958;2023-04-05T10:37:03;98310.72;;;15.81;24.85
9746;BME280;4912;50.836;12.958;2023-04-05T10:39:36;98314.41;;;15.12;24.80
9746;BME280;4912;50.836;12.958;2023-04-05T10:42:10;98319.41;;;14.73;25.04
9746;BME280;4912;50.836;12.958;2023-04-05T10:44:49;98320.97;;;14.45;25.49
9746;BME280;4912;50.836;12.958;2023-04-05T10:47:21;98311.28;;;14.25;25.73
9746;BME280;4912;50.836;12.958;2023-04-05T10:49:52;98313.41;;;14.45;26.11
9746;BME280;4912;50.836;12.958;2023-04-05T10:52:25;98304.38;;;14.50;25.97
9746;BME280;4912;50.836;12.958;2023-04-05T10:54:56;98311.66;;;13.89;26.16
9746;BME280;4912;50.836;12.958;2023-04-05T10:57:29;98318.59;;;13.31;26.72
9746;BME280;4912;50.836;12.958;2023-04-05T11:00:02;98317.66;;;12.78;27.22
9746;BME280;4912;50.836;12.958;2023-04-05T11:02:33;98323.84;;;12.30;26.81
9746;BME280;4912;50.836;12.958;2023-04-05T11:05:03;98321.31;;;11.90;27.45
9746;BME280;4912;50.836;12.958;2023-04-05T11:07:41;98329.91;;;11.56;28.16
9746;BME280;4912;50.836;12.958;2023-04-05T11:10:14;98328.19;;;11.31;28.85
9746;BME280;4912;50.836;12.958;2023-04-05T11:15:34;98320.47;;;10.99;28.52
9746;BME280;4912;50.836;12.958;2023-04-05T11:18:06;98320.03;;;11.00;28.84
9746;BME280;4912;50.836;12.958;2023-04-05T11:20:41;98321.72;;;11.07;30.61
9746;BME280;4912;50.836;12.958;2023-04-05T11:23:13;98319.28;;;11.18;30.49
9746;BME280;4912;50.836;12.958;2023-04-05T11:25:45;98313.59;;;11.31;30.20
9746;BME280;4912;50.836;12.958;2023-04-05T11:31:14;98311.91;;;11.52;30.45
9746;BME280;4912;50.836;12.958;2023-04-05T11:33:55;98313.91;;;11.69;29.19
9746;BME280;4912;50.836;12.958;2023-04-05T11:36:36;98306.38;;;11.88;29.23
9746;BME280;4912;50.836;12.958;2023-04-05T11:41:54;98294.53;;;12.39;27.74
9746;BME280;4912;50.836;12.958;2023-04-05T11:44:26;98295.75;;;14.19;26.79
9746;BME280;4912;50.836;12.958;2023-04-05T11:47:00;98292.59;;;14.75;25.78
9746;BME280;4912;50.836;12.958;2023-04-05T11:49:33;98280.91;;;16.87;24.44
9746;BME280;4912;50.836;12.958;2023-04-05T11:52:13;98285.19;;;19.01;21.44
9746;BME280;4912;50.836;12.958;2023-04-05T11:54:45;98280.19;;;20.94;20.86
9746;BME280;4912;50.836;12.958;2023-04-05T11:57:18;98273.31;;;21.56;18.58
9746;BME280;4912;50.836;12.958;2023-04-05T11:59:49;98264.44;;;22.40;18.06
9746;BME280;4912;50.836;12.958;2023-04-05T12:02:22;98269.38;;;23.24;17.53
9746;BME280;4912;50.836;12.958;2023-04-05T12:04:53;98259.38;;;23.23;17.84
9746;BME280;4912;50.836;12.958;2023-04-05T12:07:24;98269.91;;;22.52;18.74
9746;BME280;4912;50.836;12.958;2023-04-05T12:09:59;98275.84;;;20.93;20.06
9746;BME280;4912;50.836;12.958;2023-04-05T12:12:36;98261.59;;;19.32;19.88
9746;BME280;4912;50.836;12.958;2023-04-05T12:15:08;98265.56;;;17.79;21.51
9746;BME280;4912;50.836;12.958;2023-04-05T12:17:43;98271.34;;;16.62;21.93
9746;BME280;4912;50.836;12.958;2023-04-05T12:20:16;98273.78;;;15.66;22.73
9746;BME280;4912;50.836;12.958;2023-04-05T12:22:48;98276.88;;;14.72;23.88
9746;BME280;4912;50.836;12.958;2023-04-05T12:25:20;98274.81;;;14.23;24.44
9746;BME280;4912;50.836;12.958;2023-04-05T12:27:51;98274.63;;;13.83;25.76
9746;BME280;4912;50.836;12.958;2023-04-05T12:30:21;98270.63;;;13.45;26.31
9746;BME280;4912;50.836;12.958;2023-04-05T12:32:55;98270.75;;;13.03;26.33
9746;BME280;4912;50.836;12.958;2023-04-05T12:35:27;98272.09;;;12.60;26.37
9746;BME280;4912;50.836;12.958;2023-04-05T12:37:59;98272.13;;;12.09;26.88
9746;BME280;4912;50.836;12.958;2023-04-05T12:40:32;98271.41;;;11.63;27.90
9746;BME280;4912;50.836;12.958;2023-04-05T12:43:03;98269.28;;;11.31;28.31
9746;BME280;4912;50.836;12.958;2023-04-05T12:45:34;98270.03;;;11.13;28.30
9746;BME280;4912;50.836;12.958;2023-04-05T12:48:13;98265.88;;;10.99;30.05
9746;BME280;4912;50.836;12.958;2023-04-05T12:50:44;98268.59;;;10.90;30.41
9746;BME280;4912;50.836;12.958;2023-04-05T12:53:18;98271.38;;;10.81;30.66
9746;BME280;4912;50.836;12.958;2023-04-05T12:55:54;98267.78;;;10.62;30.56
9746;BME280;4912;50.836;12.958;2023-04-05T12:58:31;98252.50;;;10.49;31.30
9746;BME280;4912;50.836;12.958;2023-04-05T13:01:02;98262.78;;;10.39;31.35
9746;BME280;4912;50.836;12.958;2023-04-05T13:03:35;98260.75;;;10.31;32.75
9746;BME280;4912;50.836;12.958;2023-04-05T13:06:05;98259.50;;;10.32;33.53
9746;BME280;4912;50.836;12.958;2023-04-05T13:08:36;98262.44;;;10.28;33.25
9746;BME280;4912;50.836;12.958;2023-04-05T13:11:06;98257.94;;;10.21;33.49
9746;BME280;4912;50.836;12.958;2023-04-05T13:13:36;98256.56;;;10.17;33.58
9746;BME280;4912;50.836;12.958;2023-04-05T13:16:06;98259.56;;;10.10;33.51
9746;BME280;4912;50.836;12.958;2023-04-05T13:18:39;98252.03;;;10.10;33.69
9746;BME280;4912;50.836;12.958;2023-04-05T13:21:10;98248.81;;;10.12;33.33
9746;BME280;4912;50.836;12.958;2023-04-05T13:23:40;98248.34;;;10.13;33.21
9746;BME280;4912;50.836;12.958;2023-04-05T13:26:10;98251.25;;;10.10;32.34
9746;BME280;4912;50.836;12.958;2023-04-05T13:28:40;98251.88;;;10.14;32.97
9746;BME280;4912;50.836;12.958;2023-04-05T13:31:10;98247.47;;;10.16;33.83
9746;BME280;4912;50.836;12.958;2023-04-05T13:33:44;98243.53;;;10.26;34.02
9746;BME280;4912;50.836;12.958;2023-04-05T13:36:14;98242.91;;;10.22;32.82
9746;BME280;4912;50.836;12.958;2023-04-05T13:38:44;98239.19;;;10.16;31.95
9746;BME280;4912;50.836;12.958;2023-04-05T13:41:14;98234.84;;;10.15;32.43
9746;BME280;4912;50.836;12.958;2023-04-05T13:43:45;98237.53;;;10.19;33.22
9746;BME280;4912;50.836;12.958;2023-04-05T13:46:15;98234.28;;;10.20;34.13
9746;BME280;4912;50.836;12.958;2023-04-05T13:48:48;98233.22;;;10.18;33.30
9746;BME280;4912;50.836;12.958;2023-04-05T13:51:18;98233.84;;;10.22;32.82
9746;BME280;4912;50.836;12.958;2023-04-05T13:53:48;98231.13;;;10.40;32.58
9746;BME280;4912;50.836;12.958;2023-04-05T13:56:18;98228.75;;;10.70;33.06
9746;BME280;4912;50.836;12.958;2023-04-05T13:58:49;98225.25;;;11.05;33.11
9746;BME280;4912;50.836;12.958;2023-04-05T14:01:19;98224.78;;;11.53;31.70